Aviation Digital Data Service (ADDS)

Output produced by METARs form (0910 UTC 26 May 2019)
found at http://www.aviationweather.gov/metar/data/
 
KDRO 260853Z AUTO 07004KT 10SM CLR 02/M02 A3006 RMK AO2 SLP129 T00221017 53001
KDRO 260524Z 2606/2706 02006KT P6SM SKC 
     FM261700 16012G22KT P6SM FEW250 
     FM262000 19015G30KT P6SM SCT180 
     FM270100 22012G22KT P6SM FEW180 
     FM270300 24008KT P6SM SCT250
       
KFMN 260853Z AUTO 08010KT 10SM CLR 09/M01 A2996 RMK AO2 SLP099 T00891006 58002
KFMN 260520Z 2606/2706 26007KT P6SM SKC 
     TEMPO 2610/2614 08006KT 
     FM261400 14013KT P6SM SKC 
     FM261700 19015G25KT P6SM FEW150 
     FM270100 23012G18KT P6SM SCT150